sensor_id;sensor_type;location;lat;lon;timestamp;P1;durP1;ratioP1;P2;durP2;ratioP2
72479;SDS011;60503;43.540;-5.510;2023-05-01T00:00:49;1.67;;;0.73;;
72479;SDS011;60503;43.540;-5.510;2023-05-01T00:03:15;1.13;;;0.60;;
72479;SDS011;60503;43.540;-5.510;2023-05-01T00:05:42;2.40;;;1.00;;
72479;SDS011;60503;43.540;-5.510;2023-05-01T00:08:08;2.75;;;0.70;;
72479;SDS011;60503;43.540;-5.510;2023-05-01T00:10:34;1.88;;;0.68;;
72479;SDS011;60503;43.540;-5.510;2023-05-01T00:13:00;1.67;;;0.80;;
72479;SDS011;60503;43.540;-5.510;2023-05-01T00:15:26;1.42;;;0.70;;
72479;SDS011;60503;43.540;-5.510;2023-05-01T00:17:52;1.33;;;0.70;;
72479;SDS011;60503;43.540;-5.510;2023-05-01T00:20:18;0.68;;;0.60;;
72479;SDS011;60503;43.540;-5.510;2023-05-01T00:22:44;2.92;;;0.70;;
72479;SDS011;60503;43.540;-5.510;2023-05-01T00:25:09;0.75;;;0.65;;
72479;SDS011;60503;43.540;-5.510;2023-05-01T00:27:35;0.60;;;0.60;;
72479;SDS011;60503;43.540;-5.510;2023-05-01T00:30:01;3.88;;;0.70;;
72479;SDS011;60503;43.540;-5.510;2023-05-01T00:32:27;0.70;;;0.57;;
72479;SDS011;60503;43.540;-5.510;2023-05-01T00:34:53;0.90;;;0.50;;
72479;SDS011;60503;43.540;-5.510;2023-05-01T00:37:21;2.28;;;0.40;;
72479;SDS011;60503;43.540;-5.510;2023-05-01T00:39:48;0.90;;;0.47;;
72479;SDS011;60503;43.540;-5.510;2023-05-01T00:42:13;0.65;;;0.52;;
72479;SDS011;60503;43.540;-5.510;2023-05-01T00:44:39;0.68;;;0.50;;
72479;SDS011;60503;43.540;-5.510;2023-05-01T00:47:05;0.65;;;0.40;;
72479;SDS011;60503;43.540;-5.510;2023-05-01T00:49:30;0.40;;;0.40;;
72479;SDS011;60503;43.540;-5.510;2023-05-01T00:51:56;1.00;;;0.40;;
72479;SDS011;60503;43.540;-5.510;2023-05-01T00:54:22;1.17;;;0.30;;
72479;SDS011;60503;43.540;-5.510;2023-05-01T00:56:50;1.20;;;0.50;;
72479;SDS011;60503;43.540;-5.510;2023-05-01T00:59:15;0.40;;;0.40;;
72479;SDS011;60503;43.540;-5.510;2023-05-01T01:01:42;0.40;;;0.40;;
72479;SDS011;60503;43.540;-5.510;2023-05-01T01:04:07;0.50;;;0.50;;
72479;SDS011;60503;43.540;-5.510;2023-05-01T01:06:37;0.60;;;0.60;;
72479;SDS011;60503;43.540;-5.510;2023-05-01T01:09:30;1.35;;;0.60;;
72479;SDS011;60503;43.540;-5.510;2023-05-01T01:12:04;1.80;;;0.60;;
72479;SDS011;60503;43.540;-5.510;2023-05-01T01:14:44;2.35;;;0.60;;
72479;SDS011;60503;43.540;-5.510;2023-05-01T01:17:16;0.50;;;0.50;;
72479;SDS011;60503;43.540;-5.510;2023-05-01T01:20:03;1.90;;;0.68;;
72479;SDS011;60503;43.540;-5.510;2023-05-01T01:22:52;0.90;;;0.70;;
72479;SDS011;60503;43.540;-5.510;2023-05-01T01:31:28;4.40;;;0.85;;
72479;SDS011;60503;43.540;-5.510;2023-05-01T01:36:39;1.13;;;0.70;;
72479;SDS011;60503;43.540;-5.510;2023-05-01T01:39:26;2.83;;;0.70;;
72479;SDS011;60503;43.540;-5.510;2023-05-01T01:41:53;1.00;;;0.60;;
72479;SDS011;60503;43.540;-5.510;2023-05-01T01:44:28;0.50;;;0.50;;
72479;SDS011;60503;43.540;-5.510;2023-05-01T01:46:58;0.75;;;0.57;;
72479;SDS011;60503;43.540;-5.510;2023-05-01T01:49:27;0.50;;;0.50;;
72479;SDS011;60503;43.540;-5.510;2023-05-01T01:51:53;1.95;;;0.90;;
72479;SDS011;60503;43.540;-5.510;2023-05-01T01:54:22;0.55;;;0.50;;
72479;SDS011;60503;43.540;-5.510;2023-05-01T01:56:52;0.40;;;0.40;;
72479;SDS011;60503;43.540;-5.510;2023-05-01T01:59:19;0.60;;;0.60;;
72479;SDS011;60503;43.540;-5.510;2023-05-01T02:01:46;0.73;;;0.50;;
72479;SDS011;60503;43.540;-5.510;2023-05-01T02:04:12;0.82;;;0.60;;
72479;SDS011;60503;43.540;-5.510;2023-05-01T02:06:39;0.90;;;0.50;;
72479;SDS011;60503;43.540;-5.510;2023-05-01T02:09:05;0.50;;;0.50;;
72479;SDS011;60503;43.540;-5.510;2023-05-01T02:11:33;0.80;;;0.50;;
72479;SDS011;60503;43.540;-5.510;2023-05-01T02:14:01;1.08;;;0.52;;
72479;SDS011;60503;43.540;-5.510;2023-05-01T02:16:27;0.50;;;0.50;;
72479;SDS011;60503;43.540;-5.510;2023-05-01T02:18:54;1.13;;;0.50;;
72479;SDS011;60503;43.540;-5.510;2023-05-01T02:21:20;0.85;;;0.50;;
72479;SDS011;60503;43.540;-5.510;2023-05-01T02:23:47;1.58;;;0.70;;
72479;SDS011;60503;43.540;-5.510;2023-05-01T02:26:14;0.55;;;0.50;;
72479;SDS011;60503;43.540;-5.510;2023-05-01T02:32:05;0.38;;;0.38;;
72479;SDS011;60503;43.540;-5.510;2023-05-01T02:34:33;4.18;;;0.70;;
72479;SDS011;60503;43.540;-5.510;2023-05-01T02:36:59;0.80;;;0.75;;
72479;SDS011;60503;43.540;-5.510;2023-05-01T02:39:25;2.17;;;0.60;;
72479;SDS011;60503;43.540;-5.510;2023-05-01T02:41:50;0.85;;;0.85;;
72479;SDS011;60503;43.540;-5.510;2023-05-01T02:44:17;0.52;;;0.50;;
72479;SDS011;60503;43.540;-5.510;2023-05-01T02:46:43;0.60;;;0.60;;
72479;SDS011;60503;43.540;-5.510;2023-05-01T02:49:09;0.55;;;0.55;;
72479;SDS011;60503;43.540;-5.510;2023-05-01T02:51:36;0.77;;;0.52;;
72479;SDS011;60503;43.540;-5.510;2023-05-01T02:54:02;0.75;;;0.50;;
72479;SDS011;60503;43.540;-5.510;2023-05-01T02:56:28;0.50;;;0.50;;
72479;SDS011;60503;43.540;-5.510;2023-05-01T02:58:54;0.63;;;0.55;;
72479;SDS011;60503;43.540;-5.510;2023-05-01T03:01:20;0.60;;;0.60;;
72479;SDS011;60503;43.540;-5.510;2023-05-01T03:03:46;0.60;;;0.60;;
72479;SDS011;60503;43.540;-5.510;2023-05-01T03:06:11;0.65;;;0.50;;
72479;SDS011;60503;43.540;-5.510;2023-05-01T03:08:40;2.25;;;0.75;;
72479;SDS011;60503;43.540;-5.510;2023-05-01T03:11:06;1.17;;;0.70;;
72479;SDS011;60503;43.540;-5.510;2023-05-01T03:13:32;1.00;;;0.60;;
72479;SDS011;60503;43.540;-5.510;2023-05-01T03:15:58;0.75;;;0.60;;
72479;SDS011;60503;43.540;-5.510;2023-05-01T03:18:24;0.75;;;0.60;;
72479;SDS011;60503;43.540;-5.510;2023-05-01T03:20:53;0.50;;;0.50;;
72479;SDS011;60503;43.540;-5.510;2023-05-01T03:23:20;0.73;;;0.60;;
72479;SDS011;60503;43.540;-5.510;2023-05-01T03:25:47;3.15;;;0.80;;
72479;SDS011;60503;43.540;-5.510;2023-05-01T03:28:13;0.70;;;0.55;;
72479;SDS011;60503;43.540;-5.510;2023-05-01T03:30:38;1.40;;;0.70;;
72479;SDS011;60503;43.540;-5.510;2023-05-01T03:36:26;2.47;;;0.70;;
72479;SDS011;60503;43.540;-5.510;2023-05-01T03:38:52;0.80;;;0.70;;
72479;SDS011;60503;43.540;-5.510;2023-05-01T03:41:18;1.52;;;0.77;;
72479;SDS011;60503;43.540;-5.510;2023-05-01T03:43:43;1.40;;;0.80;;
72479;SDS011;60503;43.540;-5.510;2023-05-01T03:46:09;0.75;;;0.70;;
72479;SDS011;60503;43.540;-5.510;2023-05-01T03:48:35;1.27;;;0.80;;
72479;SDS011;60503;43.540;-5.510;2023-05-01T03:51:00;0.60;;;0.60;;
72479;SDS011;60503;43.540;-5.510;2023-05-01T03:53:26;1.85;;;0.75;;
72479;SDS011;60503;43.540;-5.510;2023-05-01T03:55:51;0.88;;;0.77;;
72479;SDS011;60503;43.540;-5.510;2023-05-01T03:58:17;0.90;;;0.70;;
72479;SDS011;60503;43.540;-5.510;2023-05-01T04:00:42;1.38;;;0.80;;
72479;SDS011;60503;43.540;-5.510;2023-05-01T04:03:08;1.80;;;0.90;;
72479;SDS011;60503;43.540;-5.510;2023-05-01T04:05:34;1.00;;;0.90;;
72479;SDS011;60503;43.540;-5.510;2023-05-01T04:08:00;3.72;;;0.95;;
72479;SDS011;60503;43.540;-5.510;2023-05-01T04:10:25;1.35;;;0.73;;
72479;SDS011;60503;43.540;-5.510;2023-05-01T04:12:51;0.80;;;0.73;;
72479;SDS011;60503;43.540;-5.510;2023-05-01T04:15:16;1.48;;;0.95;;
72479;SDS011;60503;43.540;-5.510;2023-05-01T04:17:42;2.65;;;0.90;;
72479;SDS011;60503;43.540;-5.510;2023-05-01T04:20:08;0.73;;;0.70;;
72479;SDS011;60503;43.540;-5.510;2023-05-01T04:22:35;1.17;;;0.90;;
72479;SDS011;60503;43.540;-5.510;2023-05-01T04:25:00;0.73;;;0.70;;
72479;SDS011;60503;43.540;-5.510;2023-05-01T04:27:26;0.80;;;0.68;;
72479;SDS011;60503;43.540;-5.510;2023-05-01T04:29:52;1.92;;;0.90;;
72479;SDS011;60503;43.540;-5.510;2023-05-01T04:32:17;0.70;;;0.70;;
72479;SDS011;60503;43.540;-5.510;2023-05-01T04:34:43;1.50;;;0.80;;
72479;SDS011;60503;43.540;-5.510;2023-05-01T04:37:09;3.17;;;0.88;;
72479;SDS011;60503;43.540;-5.510;2023-05-01T04:39:35;0.70;;;0.70;;
72479;SDS011;60503;43.540;-5.510;2023-05-01T04:42:01;1.55;;;0.68;;
72479;SDS011;60503;43.540;-5.510;2023-05-01T04:44:29;1.33;;;0.73;;
72479;SDS011;60503;43.540;-5.510;2023-05-01T04:46:58;1.10;;;0.90;;
72479;SDS011;60503;43.540;-5.510;2023-05-01T04:49:25;1.10;;;0.80;;
72479;SDS011;60503;43.540;-5.510;2023-05-01T04:51:51;1.55;;;0.80;;
72479;SDS011;60503;43.540;-5.510;2023-05-01T04:54:16;1.42;;;0.80;;
72479;SDS011;60503;43.540;-5.510;2023-05-01T04:56:42;1.05;;;0.80;;
72479;SDS011;60503;43.540;-5.510;2023-05-01T04:59:08;1.65;;;1.00;;
72479;SDS011;60503;43.540;-5.510;2023-05-01T05:01:33;1.17;;;0.82;;
72479;SDS011;60503;43.540;-5.510;2023-05-01T05:03:59;1.27;;;0.80;;
72479;SDS011;60503;43.540;-5.510;2023-05-01T05:06:24;2.65;;;0.90;;
72479;SDS011;60503;43.540;-5.510;2023-05-01T05:12:11;1.52;;;1.00;;
72479;SDS011;60503;43.540;-5.510;2023-05-01T05:14:39;1.92;;;0.77;;
72479;SDS011;60503;43.540;-5.510;2023-05-01T05:17:05;1.10;;;0.90;;
72479;SDS011;60503;43.540;-5.510;2023-05-01T05:19:30;1.10;;;0.90;;
72479;SDS011;60503;43.540;-5.510;2023-05-01T05:21:56;0.90;;;0.80;;
72479;SDS011;60503;43.540;-5.510;2023-05-01T05:24:22;4.03;;;1.15;;
72479;SDS011;60503;43.540;-5.510;2023-05-01T05:26:47;1.35;;;0.80;;
72479;SDS011;60503;43.540;-5.510;2023-05-01T05:29:13;1.40;;;0.90;;
72479;SDS011;60503;43.540;-5.510;2023-05-01T05:31:39;1.05;;;0.90;;
72479;SDS011;60503;43.540;-5.510;2023-05-01T05:34:04;1.48;;;0.80;;
72479;SDS011;60503;43.540;-5.510;2023-05-01T05:36:30;1.55;;;0.90;;
72479;SDS011;60503;43.540;-5.510;2023-05-01T05:38:56;1.17;;;0.80;;
72479;SDS011;60503;43.540;-5.510;2023-05-01T05:41:22;1.60;;;0.98;;
72479;SDS011;60503;43.540;-5.510;2023-05-01T05:43:47;1.13;;;0.82;;
72479;SDS011;60503;43.540;-5.510;2023-05-01T05:46:13;1.23;;;0.80;;
72479;SDS011;60503;43.540;-5.510;2023-05-01T05:48:39;1.85;;;1.00;;
72479;SDS011;60503;43.540;-5.510;2023-05-01T05:51:04;1.73;;;1.00;;
72479;SDS011;60503;43.540;-5.510;2023-05-01T05:53:30;2.38;;;1.00;;
72479;SDS011;60503;43.540;-5.510;2023-05-01T05:55:56;0.98;;;0.88;;
72479;SDS011;60503;43.540;-5.510;2023-05-01T05:58:21;1.77;;;0.85;;
72479;SDS011;60503;43.540;-5.510;2023-05-01T06:00:48;1.65;;;0.93;;
72479;SDS011;60503;43.540;-5.510;2023-05-01T06:03:14;1.55;;;0.88;;
72479;SDS011;60503;43.540;-5.510;2023-05-01T06:05:41;2.13;;;0.80;;
72479;SDS011;60503;43.540;-5.510;2023-05-01T06:08:07;1.17;;;1.00;;
72479;SDS011;60503;43.540;-5.510;2023-05-01T06:10:34;1.67;;;1.02;;
72479;SDS011;60503;43.540;-5.510;2023-05-01T06:13:01;2.38;;;0.80;;
72479;SDS011;60503;43.540;-5.510;2023-05-01T06:15:27;2.55;;;1.08;;
72479;SDS011;60503;43.540;-5.510;2023-05-01T06:17:53;2.60;;;0.93;;
72479;SDS011;60503;43.540;-5.510;2023-05-01T06:20:19;2.65;;;0.95;;
72479;SDS011;60503;43.540;-5.510;2023-05-01T06:22:44;2.15;;;1.08;;
72479;SDS011;60503;43.540;-5.510;2023-05-01T06:25:10;1.60;;;0.98;;
72479;SDS011;60503;43.540;-5.510;2023-05-01T06:27:37;1.50;;;0.82;;
72479;SDS011;60503;43.540;-5.510;2023-05-01T06:30:02;1.48;;;0.98;;
72479;SDS011;60503;43.540;-5.510;2023-05-01T06:32:29;1.20;;;0.90;;
72479;SDS011;60503;43.540;-5.510;2023-05-01T06:34:54;1.42;;;0.90;;
72479;SDS011;60503;43.540;-5.510;2023-05-01T06:37:20;1.00;;;0.90;;
72479;SDS011;60503;43.540;-5.510;2023-05-01T06:39:46;3.30;;;0.90;;
72479;SDS011;60503;43.540;-5.510;2023-05-01T06:42:12;1.30;;;0.90;;
72479;SDS011;60503;43.540;-5.510;2023-05-01T06:44:40;6.00;;;0.82;;
72479;SDS011;60503;43.540;-5.510;2023-05-01T06:47:09;1.40;;;0.93;;
72479;SDS011;60503;43.540;-5.510;2023-05-01T06:49:36;5.97;;;0.70;;
72479;SDS011;60503;43.540;-5.510;2023-05-01T06:52:01;2.25;;;0.80;;
72479;SDS011;60503;43.540;-5.510;2023-05-01T06:54:27;0.82;;;0.65;;
72479;SDS011;60503;43.540;-5.510;2023-05-01T06:56:53;0.70;;;0.70;;
72479;SDS011;60503;43.540;-5.510;2023-05-01T06:59:18;0.88;;;0.65;;
72479;SDS011;60503;43.540;-5.510;2023-05-01T07:01:44;0.90;;;0.63;;
72479;SDS011;60503;43.540;-5.510;2023-05-01T07:04:10;1.90;;;0.80;;
72479;SDS011;60503;43.540;-5.510;2023-05-01T07:06:36;0.90;;;0.70;;
72479;SDS011;60503;43.540;-5.510;2023-05-01T07:09:05;1.38;;;0.60;;
72479;SDS011;60503;43.540;-5.510;2023-05-01T07:11:31;1.10;;;0.68;;
72479;SDS011;60503;43.540;-5.510;2023-05-01T07:13:57;0.98;;;0.75;;
72479;SDS011;60503;43.540;-5.510;2023-05-01T07:16:25;4.43;;;0.90;;
72479;SDS011;60503;43.540;-5.510;2023-05-01T07:18:51;1.33;;;0.80;;
72479;SDS011;60503;43.540;-5.510;2023-05-01T07:21:17;1.58;;;0.70;;
72479;SDS011;60503;43.540;-5.510;2023-05-01T07:23:43;1.10;;;0.80;;
72479;SDS011;60503;43.540;-5.510;2023-05-01T07:26:08;3.38;;;1.85;;
72479;SDS011;60503;43.540;-5.510;2023-05-01T07:28:37;1.77;;;0.80;;
72479;SDS011;60503;43.540;-5.510;2023-05-01T07:31:03;1.20;;;0.90;;
72479;SDS011;60503;43.540;-5.510;2023-05-01T07:33:30;0.70;;;0.60;;
72479;SDS011;60503;43.540;-5.510;2023-05-01T07:35:55;2.30;;;0.77;;
72479;SDS011;60503;43.540;-5.510;2023-05-01T07:38:22;0.70;;;0.70;;
72479;SDS011;60503;43.540;-5.510;2023-05-01T07:40:47;2.65;;;0.73;;
72479;SDS011;60503;43.540;-5.510;2023-05-01T07:43:17;1.05;;;0.80;;
72479;SDS011;60503;43.540;-5.510;2023-05-01T07:45:44;1.05;;;0.80;;
72479;SDS011;60503;43.540;-5.510;2023-05-01T07:48:24;2.05;;;0.90;;
72479;SDS011;60503;43.540;-5.510;2023-05-01T07:50:52;0.70;;;0.70;;
72479;SDS011;60503;43.540;-5.510;2023-05-01T07:53:18;1.65;;;0.80;;
72479;SDS011;60503;43.540;-5.510;2023-05-01T07:55:43;1.02;;;0.80;;
72479;SDS011;60503;43.540;-5.510;2023-05-01T07:58:09;1.25;;;0.93;;
72479;SDS011;60503;43.540;-5.510;2023-05-01T08:00:35;1.05;;;0.80;;
72479;SDS011;60503;43.540;-5.510;2023-05-01T08:03:00;0.70;;;0.70;;
72479;SDS011;60503;43.540;-5.510;2023-05-01T08:05:26;0.70;;;0.70;;
72479;SDS011;60503;43.540;-5.510;2023-05-01T08:11:14;1.92;;;1.08;;
72479;SDS011;60503;43.540;-5.510;2023-05-01T08:13:40;1.27;;;0.80;;
72479;SDS011;60503;43.540;-5.510;2023-05-01T08:16:05;0.75;;;0.75;;
72479;SDS011;60503;43.540;-5.510;2023-05-01T08:18:31;0.95;;;0.52;;
72479;SDS011;60503;43.540;-5.510;2023-05-01T08:20:57;1.02;;;0.80;;
72479;SDS011;60503;43.540;-5.510;2023-05-01T08:23:23;1.90;;;0.98;;
72479;SDS011;60503;43.540;-5.510;2023-05-01T08:25:50;2.38;;;0.70;;
72479;SDS011;60503;43.540;-5.510;2023-05-01T08:31:37;1.63;;;0.88;;
72479;SDS011;60503;43.540;-5.510;2023-05-01T08:34:06;2.22;;;0.90;;
72479;SDS011;60503;43.540;-5.510;2023-05-01T08:36:31;1.00;;;0.90;;
72479;SDS011;60503;43.540;-5.510;2023-05-01T08:38:58;1.23;;;0.75;;
72479;SDS011;60503;43.540;-5.510;2023-05-01T08:41:24;1.08;;;0.70;;
72479;SDS011;60503;43.540;-5.510;2023-05-01T08:43:51;3.03;;;0.73;;
72479;SDS011;60503;43.540;-5.510;2023-05-01T08:46:24;1.98;;;0.90;;
72479;SDS011;60503;43.540;-5.510;2023-05-01T08:48:57;1.55;;;1.05;;
72479;SDS011;60503;43.540;-5.510;2023-05-01T08:51:24;1.77;;;0.75;;
72479;SDS011;60503;43.540;-5.510;2023-05-01T08:53:51;2.38;;;0.90;;
72479;SDS011;60503;43.540;-5.510;2023-05-01T08:56:17;0.98;;;0.60;;
72479;SDS011;60503;43.540;-5.510;2023-05-01T08:58:44;0.70;;;0.70;;
72479;SDS011;60503;43.540;-5.510;2023-05-01T09:01:13;1.50;;;0.73;;
72479;SDS011;60503;43.540;-5.510;2023-05-01T09:03:40;4.13;;;0.80;;
72479;SDS011;60503;43.540;-5.510;2023-05-01T09:06:08;2.85;;;0.60;;
72479;SDS011;60503;43.540;-5.510;2023-05-01T09:08:35;2.60;;;0.80;;
72479;SDS011;60503;43.540;-5.510;2023-05-01T09:11:01;1.58;;;0.70;;
72479;SDS011;60503;43.540;-5.510;2023-05-01T09:13:27;0.70;;;0.70;;
72479;SDS011;60503;43.540;-5.510;2023-05-01T09:15:54;2.22;;;0.80;;
72479;SDS011;60503;43.540;-5.510;2023-05-01T09:18:19;1.90;;;1.00;;
72479;SDS011;60503;43.540;-5.510;2023-05-01T09:24:07;3.78;;;1.80;;
72479;SDS011;60503;43.540;-5.510;2023-05-01T09:26:33;6.07;;;2.40;;
72479;SDS011;60503;43.540;-5.510;2023-05-01T09:29:01;3.70;;;2.17;;
72479;SDS011;60503;43.540;-5.510;2023-05-01T09:31:27;3.35;;;2.15;;
72479;SDS011;60503;43.540;-5.510;2023-05-01T09:33:56;4.57;;;1.98;;
72479;SDS011;60503;43.540;-5.510;2023-05-01T09:36:24;2.83;;;1.50;;
72479;SDS011;60503;43.540;-5.510;2023-05-01T09:38:52;4.55;;;1.70;;
72479;SDS011;60503;43.540;-5.510;2023-05-01T09:44:39;4.35;;;1.48;;
72479;SDS011;60503;43.540;-5.510;2023-05-01T09:47:07;2.45;;;1.45;;
72479;SDS011;60503;43.540;-5.510;2023-05-01T09:50:06;2.50;;;1.40;;
72479;SDS011;60503;43.540;-5.510;2023-05-01T09:52:28;4.65;;;1.23;;
72479;SDS011;60503;43.540;-5.510;2023-05-01T09:57:39;2.33;;;1.00;;
72479;SDS011;60503;43.540;-5.510;2023-05-01T10:00:07;1.75;;;1.10;;
72479;SDS011;60503;43.540;-5.510;2023-05-01T10:05:56;2.72;;;1.00;;
72479;SDS011;60503;43.540;-5.510;2023-05-01T10:08:24;2.47;;;1.20;;
72479;SDS011;60503;43.540;-5.510;2023-05-01T10:11:03;3.55;;;1.33;;
72479;SDS011;60503;43.540;-5.510;2023-05-01T10:13:32;2.33;;;1.30;;
72479;SDS011;60503;43.540;-5.510;2023-05-01T10:15:57;4.07;;;1.60;;
72479;SDS011;60503;43.540;-5.510;2023-05-01T10:18:25;5.00;;;1.70;;
72479;SDS011;60503;43.540;-5.510;2023-05-01T10:20:51;3.13;;;1.40;;
72479;SDS011;60503;43.540;-5.510;2023-05-01T10:23:17;3.40;;;1.27;;
72479;SDS011;60503;43.540;-5.510;2023-05-01T10:29:05;2.88;;;1.10;;
72479;SDS011;60503;43.540;-5.510;2023-05-01T10:31:30;3.42;;;1.13;;
72479;SDS011;60503;43.540;-5.510;2023-05-01T10:33:57;2.95;;;1.20;;
72479;SDS011;60503;43.540;-5.510;2023-05-01T10:39:44;1.75;;;0.90;;
72479;SDS011;60503;43.540;-5.510;2023-05-01T10:42:10;4.50;;;0.95;;
72479;SDS011;60503;43.540;-5.510;2023-05-01T10:48:00;3.20;;;0.90;;
72479;SDS011;60503;43.540;-5.510;2023-05-01T10:50:25;5.63;;;1.15;;
72479;SDS011;60503;43.540;-5.510;2023-05-01T10:58:58;3.67;;;1.00;;
72479;SDS011;60503;43.540;-5.510;2023-05-01T11:03:56;2.80;;;1.27;;
72479;SDS011;60503;43.540;-5.510;2023-05-01T11:06:22;2.53;;;1.10;;
72479;SDS011;60503;43.540;-5.510;2023-05-01T11:08:48;1.58;;;1.15;;
72479;SDS011;60503;43.540;-5.510;2023-05-01T11:17:07;1.98;;;0.88;;
72479;SDS011;60503;43.540;-5.510;2023-05-01T11:19:43;7.03;;;1.52;;
72479;SDS011;60503;43.540;-5.510;2023-05-01T11:25:31;2.10;;;0.95;;
72479;SDS011;60503;43.540;-5.510;2023-05-01T11:28:01;5.70;;;1.33;;
72479;SDS011;60503;43.540;-5.510;2023-05-01T11:30:40;4.10;;;1.15;;
72479;SDS011;60503;43.540;-5.510;2023-05-01T11:33:06;3.20;;;1.02;;
72479;SDS011;60503;43.540;-5.510;2023-05-01T11:35:32;4.60;;;1.02;;
72479;SDS011;60503;43.540;-5.510;2023-05-01T11:37:58;5.15;;;1.25;;
72479;SDS011;60503;43.540;-5.510;2023-05-01T11:40:28;1.00;;;0.60;;
72479;SDS011;60503;43.540;-5.510;2023-05-01T11:48:49;2.42;;;0.80;;
72479;SDS011;60503;43.540;-5.510;2023-05-01T11:54:45;3.00;;;0.77;;
72479;SDS011;60503;43.540;-5.510;2023-05-01T11:57:12;2.92;;;0.88;;
72479;SDS011;60503;43.540;-5.510;2023-05-01T11:59:38;4.03;;;0.82;;
72479;SDS011;60503;43.540;-5.510;2023-05-01T12:05:26;3.55;;;0.90;;
72479;SDS011;60503;43.540;-5.510;2023-05-01T12:10:37;3.38;;;1.00;;
72479;SDS011;60503;43.540;-5.510;2023-05-01T12:13:05;4.22;;;0.70;;
72479;SDS011;60503;43.540;-5.510;2023-05-01T12:15:33;3.40;;;1.48;;
72479;SDS011;60503;43.540;-5.510;2023-05-01T12:18:00;5.85;;;0.98;;
72479;SDS011;60503;43.540;-5.510;2023-05-01T12:20:40;2.63;;;0.90;;
72479;SDS011;60503;43.540;-5.510;2023-05-01T12:23:08;3.90;;;0.70;;
72479;SDS011;60503;43.540;-5.510;2023-05-01T12:25:36;2.10;;;1.00;;
72479;SDS011;60503;43.540;-5.510;2023-05-01T12:28:07;4.65;;;1.02;;
72479;SDS011;60503;43.540;-5.510;2023-05-01T12:30:40;5.07;;;1.23;;
72479;SDS011;60503;43.540;-5.510;2023-05-01T12:36:29;2.28;;;0.88;;
72479;SDS011;60503;43.540;-5.510;2023-05-01T12:41:35;2.78;;;0.80;;
72479;SDS011;60503;43.540;-5.510;2023-05-01T12:54:09;3.60;;;0.90;;
72479;SDS011;60503;43.540;-5.510;2023-05-01T12:56:34;5.43;;;0.90;;
72479;SDS011;60503;43.540;-5.510;2023-05-01T12:59:00;4.53;;;1.42;;
72479;SDS011;60503;43.540;-5.510;2023-05-01T13:01:26;2.00;;;0.75;;
72479;SDS011;60503;43.540;-5.510;2023-05-01T13:03:52;2.80;;;0.75;;
72479;SDS011;60503;43.540;-5.510;2023-05-01T13:09:56;4.53;;;0.80;;
72479;SDS011;60503;43.540;-5.510;2023-05-01T13:12:23;3.40;;;0.65;;
72479;SDS011;60503;43.540;-5.510;2023-05-01T13:18:11;2.78;;;0.90;;
72479;SDS011;60503;43.540;-5.510;2023-05-01T13:20:36;1.85;;;0.70;;
72479;SDS011;60503;43.540;-5.510;2023-05-01T13:23:08;5.20;;;0.90;;
72479;SDS011;60503;43.540;-5.510;2023-05-01T13:25:34;4.00;;;0.90;;
72479;SDS011;60503;43.540;-5.510;2023-05-01T13:28:00;3.35;;;0.82;;
72479;SDS011;60503;43.540;-5.510;2023-05-01T13:30:35;3.35;;;0.68;;
72479;SDS011;60503;43.540;-5.510;2023-05-01T13:33:02;1.23;;;0.68;;
72479;SDS011;60503;43.540;-5.510;2023-05-01T13:38:51;2.35;;;0.80;;
72479;SDS011;60503;43.540;-5.510;2023-05-01T13:41:19;5.75;;;1.10;;
72479;SDS011;60503;43.540;-5.510;2023-05-01T13:43:45;4.95;;;0.98;;
72479;SDS011;60503;43.540;-5.510;2023-05-01T13:46:12;5.68;;;0.90;;
72479;SDS011;60503;43.540;-5.510;2023-05-01T13:48:39;4.45;;;0.90;;
72479;SDS011;60503;43.540;-5.510;2023-05-01T13:51:08;3.58;;;0.70;;
72479;SDS011;60503;43.540;-5.510;2023-05-01T13:53:34;6.07;;;0.80;;
72479;SDS011;60503;43.540;-5.510;2023-05-01T13:56:04;3.95;;;1.00;;
72479;SDS011;60503;43.540;-5.510;2023-05-01T13:58:33;3.75;;;0.88;;
72479;SDS011;60503;43.540;-5.510;2023-05-01T14:01:00;2.95;;;0.77;;
72479;SDS011;60503;43.540;-5.510;2023-05-01T14:03:27;3.67;;;0.90;;
72479;SDS011;60503;43.540;-5.510;2023-05-01T14:05:56;3.40;;;0.80;;
72479;SDS011;60503;43.540;-5.510;2023-05-01T14:08:25;6.15;;;1.27;;
72479;SDS011;60503;43.540;-5.510;2023-05-01T14:10:57;3.47;;;0.80;;
72479;SDS011;60503;43.540;-5.510;2023-05-01T14:13:22;5.70;;;0.90;;
72479;SDS011;60503;43.540;-5.510;2023-05-01T14:15:51;2.47;;;0.90;;
72479;SDS011;60503;43.540;-5.510;2023-05-01T14:18:19;5.18;;;0.80;;
72479;SDS011;60503;43.540;-5.510;2023-05-01T14:20:46;2.45;;;0.70;;
72479;SDS011;60503;43.540;-5.510;2023-05-01T14:23:13;1.83;;;0.82;;
72479;SDS011;60503;43.540;-5.510;2023-05-01T14:25:41;4.75;;;0.70;;
72479;SDS011;60503;43.540;-5.510;2023-05-01T14:28:08;4.85;;;0.95;;
72479;SDS011;60503;43.540;-5.510;2023-05-01T14:30:36;2.35;;;0.77;;
72479;SDS011;60503;43.540;-5.510;2023-05-01T14:33:04;6.75;;;1.00;;
72479;SDS011;60503;43.540;-5.510;2023-05-01T14:35:30;3.30;;;0.70;;
72479;SDS011;60503;43.540;-5.510;2023-05-01T14:37:58;4.15;;;1.00;;
72479;SDS011;60503;43.540;-5.510;2023-05-01T14:43:53;3.83;;;1.10;;
72479;SDS011;60503;43.540;-5.510;2023-05-01T14:46:25;3.50;;;0.80;;
72479;SDS011;60503;43.540;-5.510;2023-05-01T14:48:52;4.97;;;1.00;;
72479;SDS011;60503;43.540;-5.510;2023-05-01T14:51:18;4.38;;;0.85;;
72479;SDS011;60503;43.540;-5.510;2023-05-01T14:53:44;4.10;;;0.90;;
72479;SDS011;60503;43.540;-5.510;2023-05-01T14:56:10;5.78;;;1.00;;
72479;SDS011;60503;43.540;-5.510;2023-05-01T14:58:36;2.45;;;0.80;;
72479;SDS011;60503;43.540;-5.510;2023-05-01T15:01:02;4.53;;;0.80;;
72479;SDS011;60503;43.540;-5.510;2023-05-01T15:03:28;5.25;;;1.25;;
72479;SDS011;60503;43.540;-5.510;2023-05-01T15:05:54;9.32;;;1.10;;
72479;SDS011;60503;43.540;-5.510;2023-05-01T15:08:20;2.92;;;0.80;;
72479;SDS011;60503;43.540;-5.510;2023-05-01T15:10:46;2.88;;;0.80;;
72479;SDS011;60503;43.540;-5.510;2023-05-01T15:13:12;4.32;;;1.02;;
72479;SDS011;60503;43.540;-5.510;2023-05-01T15:15:38;2.85;;;0.80;;
72479;SDS011;60503;43.540;-5.510;2023-05-01T15:18:03;6.57;;;1.08;;
72479;SDS011;60503;43.540;-5.510;2023-05-01T15:20:29;5.05;;;1.02;;
72479;SDS011;60503;43.540;-5.510;2023-05-01T15:22:57;5.95;;;0.93;;
72479;SDS011;60503;43.540;-5.510;2023-05-01T15:25:23;3.95;;;0.88;;
72479;SDS011;60503;43.540;-5.510;2023-05-01T15:27:49;4.22;;;0.90;;
72479;SDS011;60503;43.540;-5.510;2023-05-01T15:30:15;5.68;;;1.00;;
72479;SDS011;60503;43.540;-5.510;2023-05-01T15:32:41;4.40;;;0.88;;
72479;SDS011;60503;43.540;-5.510;2023-05-01T15:35:06;8.82;;;1.00;;
72479;SDS011;60503;43.540;-5.510;2023-05-01T15:37:32;4.53;;;1.20;;
72479;SDS011;60503;43.540;-5.510;2023-05-01T15:39:58;8.38;;;1.20;;
72479;SDS011;60503;43.540;-5.510;2023-05-01T15:42:24;6.35;;;0.98;;
72479;SDS011;60503;43.540;-5.510;2023-05-01T15:44:50;7.78;;;0.85;;
72479;SDS011;60503;43.540;-5.510;2023-05-01T15:47:16;3.45;;;0.90;;
72479;SDS011;60503;43.540;-5.510;2023-05-01T15:49:41;5.65;;;1.05;;
72479;SDS011;60503;43.540;-5.510;2023-05-01T15:52:07;4.43;;;0.98;;
72479;SDS011;60503;43.540;-5.510;2023-05-01T15:54:33;4.95;;;0.98;;
72479;SDS011;60503;43.540;-5.510;2023-05-01T15:56:58;10.25;;;1.20;;
72479;SDS011;60503;43.540;-5.510;2023-05-01T15:59:26;5.25;;;1.00;;
72479;SDS011;60503;43.540;-5.510;2023-05-01T16:01:52;5.43;;;1.23;;
72479;SDS011;60503;43.540;-5.510;2023-05-01T16:04:18;3.22;;;0.90;;
72479;SDS011;60503;43.540;-5.510;2023-05-01T16:06:44;3.17;;;0.93;;
72479;SDS011;60503;43.540;-5.510;2023-05-01T16:09:11;4.45;;;1.00;;
72479;SDS011;60503;43.540;-5.510;2023-05-01T16:11:37;2.83;;;1.10;;
72479;SDS011;60503;43.540;-5.510;2023-05-01T16:14:03;7.88;;;1.00;;
72479;SDS011;60503;43.540;-5.510;2023-05-01T16:16:28;6.47;;;1.05;;
72479;SDS011;60503;43.540;-5.510;2023-05-01T16:18:57;6.57;;;0.93;;
72479;SDS011;60503;43.540;-5.510;2023-05-01T16:21:24;6.05;;;1.08;;
72479;SDS011;60503;43.540;-5.510;2023-05-01T16:23:50;5.75;;;1.27;;